createdAt,value
2023-03-21T00:01:53.909Z,89.63
2023-03-21T00:04:23.767Z,93.28
2023-03-21T00:06:52.047Z,88.22
2023-03-21T00:09:20.244Z,94.63
2023-03-21T00:11:48.634Z,89.80
2023-03-21T00:14:19.091Z,94.25
2023-03-21T00:16:52.192Z,94.00
2023-03-21T00:19:21.934Z,92.03
2023-03-21T00:22:06.601Z,95.90
2023-03-21T00:24:36.218Z,85.47
2023-03-21T00:29:53.137Z,81.72
2023-03-21T00:32:21.974Z,82.93
2023-03-21T00:35:40.769Z,81.97
2023-03-21T00:37:38.986Z,83.80
2023-03-21T00:40:16.297Z,86.72
2023-03-21T00:42:52.116Z,81.10
2023-03-21T00:45:22.457Z,85.63
2023-03-21T00:47:50.791Z,83.85
2023-03-21T00:50:18.888Z,89.85
2023-03-21T00:52:46.895Z,87.05
2023-03-21T00:55:17.150Z,86.38
2023-03-21T00:57:50.099Z,83.30
2023-03-21T01:00:25.434Z,74.07
2023-03-21T01:03:17.577Z,71.55
2023-03-21T01:06:09.934Z,76.43
2023-03-21T01:08:51.860Z,78.18
2023-03-21T01:11:23.191Z,82.72
2023-03-21T01:13:59.657Z,77.68
2023-03-21T01:16:32.659Z,79.43
2023-03-21T01:19:02.150Z,84.80
2023-03-21T01:21:33.498Z,85.05
2023-03-21T01:24:02.440Z,80.20
2023-03-21T01:26:30.151Z,76.70
2023-03-21T01:28:58.478Z,75.95
2023-03-21T01:31:26.394Z,78.28
2023-03-21T01:33:54.323Z,76.32
2023-03-21T01:36:25.378Z,82.00
2023-03-21T01:38:57.841Z,78.43
2023-03-21T01:41:47.489Z,74.45
2023-03-21T01:44:25.052Z,74.90
2023-03-21T01:47:10.552Z,67.50
2023-03-21T01:50:02.849Z,72.30
2023-03-21T01:52:42.170Z,71.10
2023-03-21T01:55:28.791Z,72.68
2023-03-21T01:58:18.425Z,79.65
2023-03-21T02:01:10.463Z,74.38
2023-03-21T02:03:53.094Z,71.55
2023-03-21T02:06:53.956Z,78.38
2023-03-21T02:09:40.441Z,74.40
2023-03-21T02:12:16.567Z,77.13
2023-03-21T02:14:48.675Z,76.13
2023-03-21T02:18:05.627Z,77.82
2023-03-21T02:21:03.102Z,72.90
2023-03-21T02:23:51.956Z,69.55
2023-03-21T02:26:40.899Z,76.28
2023-03-21T02:29:31.022Z,73.40
2023-03-21T02:32:36.656Z,74.93
2023-03-21T02:35:15.375Z,76.38
2023-03-21T02:37:52.023Z,69.55
2023-03-21T02:40:28.817Z,71.85
2023-03-21T02:43:09.338Z,75.72
2023-03-21T02:45:57.517Z,73.35
2023-03-21T02:48:44.400Z,81.82
2023-03-21T02:51:21.437Z,74.55
2023-03-21T02:54:23.710Z,77.93
2023-03-21T02:56:46.040Z,72.88
2023-03-21T02:59:16.957Z,72.72
2023-03-21T03:01:46.482Z,73.25
2023-03-21T03:04:22.952Z,69.50
2023-03-21T03:07:18.521Z,69.35
2023-03-21T03:10:17.342Z,73.22
2023-03-21T03:12:52.399Z,70.00
2023-03-21T03:15:24.548Z,68.93
2023-03-21T03:18:20.010Z,69.70
2023-03-21T03:21:11.208Z,71.75
2023-03-21T03:23:58.655Z,71.55
2023-03-21T03:26:34.410Z,61.60
2023-03-21T03:29:13.977Z,62.60
2023-03-21T03:31:49.457Z,70.00
2023-03-21T03:34:21.172Z,65.00
2023-03-21T03:36:56.577Z,67.40
2023-03-21T03:39:36.260Z,64.00
2023-03-21T03:42:25.499Z,65.35
2023-03-21T03:45:01.177Z,65.38
2023-03-21T03:47:39.884Z,60.95
2023-03-21T03:50:13.974Z,57.67
2023-03-21T03:52:55.840Z,56.63
2023-03-21T03:55:28.334Z,62.03
2023-03-21T03:58:06.429Z,58.95
2023-03-21T04:00:39.329Z,56.60
2023-03-21T04:03:07.595Z,62.88
2023-03-21T04:05:35.486Z,58.13
2023-03-21T04:08:03.907Z,55.80
2023-03-21T04:10:39.126Z,62.72
2023-03-21T04:13:06.998Z,52.80
2023-03-21T04:15:54.053Z,58.92
2023-03-21T04:18:23.627Z,59.33
2023-03-21T04:20:51.703Z,57.30
2023-03-21T04:23:20.390Z,59.05
2023-03-21T04:25:56.602Z,55.22
2023-03-21T04:28:38.732Z,60.75
2023-03-21T04:31:31.595Z,60.67
2023-03-21T04:34:12.991Z,57.35
2023-03-21T04:36:51.227Z,56.05
2023-03-21T04:39:19.258Z,57.20
2023-03-21T04:41:50.732Z,59.10
2023-03-21T04:44:18.648Z,57.20
2023-03-21T04:46:48.229Z,52.53
2023-03-21T04:49:16.126Z,55.22
2023-03-21T04:51:45.631Z,58.55
2023-03-21T04:56:46.338Z,52.03
2023-03-21T04:59:16.984Z,51.92
2023-03-21T05:01:46.102Z,56.33
2023-03-21T05:04:15.027Z,58.72
2023-03-21T05:06:44.561Z,52.63
2023-03-21T05:09:13.440Z,54.28
2023-03-21T05:11:41.982Z,55.70
2023-03-21T05:14:16.188Z,50.67
2023-03-21T05:16:49.090Z,54.60
2023-03-21T05:19:19.420Z,45.00
2023-03-21T05:21:50.162Z,46.58
2023-03-21T05:24:22.773Z,47.15
2023-03-21T05:26:52.761Z,44.45
2023-03-21T05:29:26.033Z,44.47
2023-03-21T05:32:00.937Z,40.92
2023-03-21T05:34:30.236Z,46.45
2023-03-21T05:36:59.608Z,41.40
2023-03-21T05:39:37.121Z,40.92
2023-03-21T05:42:12.226Z,39.35
2023-03-21T05:44:41.121Z,40.22
2023-03-21T05:47:13.497Z,45.30
2023-03-21T05:49:45.719Z,40.42
2023-03-21T05:52:14.640Z,42.10
2023-03-21T05:54:42.585Z,43.05
2023-03-21T05:57:11.292Z,38.15
2023-03-21T05:59:51.596Z,42.38
2023-03-21T06:02:21.954Z,35.42
2023-03-21T06:04:51.563Z,36.72
2023-03-21T06:07:22.324Z,37.13
2023-03-21T06:09:51.649Z,41.22
2023-03-21T06:12:20.462Z,40.90
2023-03-21T06:15:01.761Z,38.75
2023-03-21T06:17:48.812Z,40.67
2023-03-21T06:20:17.962Z,39.72
2023-03-21T06:22:51.567Z,39.22
2023-03-21T06:25:20.356Z,40.97
2023-03-21T06:27:49.053Z,35.83
2023-03-21T06:30:18.993Z,43.78
2023-03-21T06:33:01.069Z,39.25
2023-03-21T06:35:29.013Z,36.97
2023-03-21T06:37:59.442Z,36.80
2023-03-21T06:40:32.158Z,34.78
2023-03-21T06:43:00.260Z,38.28
2023-03-21T06:45:28.464Z,36.97
2023-03-21T06:47:58.148Z,36.80
2023-03-21T06:50:35.921Z,40.10
2023-03-21T06:53:04.880Z,31.90
2023-03-21T06:55:37.391Z,35.45
2023-03-21T06:58:06.303Z,34.83
2023-03-21T07:00:34.317Z,34.17
2023-03-21T07:03:03.215Z,31.73
2023-03-21T07:05:37.429Z,30.58
2023-03-21T07:08:10.606Z,34.92
2023-03-21T07:10:45.355Z,34.40
2023-03-21T07:13:15.071Z,29.58
2023-03-21T07:18:15.442Z,32.40
2023-03-21T07:20:48.925Z,32.90
2023-03-21T07:23:21.979Z,32.58
2023-03-21T07:25:51.216Z,32.97
2023-03-21T07:28:19.845Z,33.58
2023-03-21T07:30:55.803Z,31.45
2023-03-21T07:33:25.401Z,32.50
2023-03-21T07:35:58.067Z,33.22
2023-03-21T07:38:27.009Z,32.08
2023-03-21T07:40:54.525Z,28.10
2023-03-21T07:43:23.852Z,34.10
2023-03-21T07:45:57.489Z,64.63
2023-03-21T07:48:27.968Z,38.47
2023-03-21T07:50:55.913Z,29.45
2023-03-21T07:53:23.817Z,36.08
2023-03-21T07:55:54.169Z,26.13
2023-03-21T07:58:22.077Z,23.85
2023-03-21T08:00:49.902Z,21.98
2023-03-21T08:03:18.359Z,20.25
2023-03-21T08:05:47.927Z,23.95
2023-03-21T08:08:17.205Z,21.55
2023-03-21T08:10:46.311Z,25.67
2023-03-21T08:13:15.068Z,23.38
2023-03-21T08:15:43.699Z,22.30
2023-03-21T08:18:12.872Z,23.75
2023-03-21T08:20:42.496Z,20.63
2023-03-21T08:23:10.900Z,23.13
2023-03-21T08:25:40.499Z,23.42
2023-03-21T08:28:08.935Z,18.30
2023-03-21T08:30:38.263Z,20.63
2023-03-21T08:33:08.415Z,22.30
2023-03-21T08:35:39.619Z,21.33
2023-03-21T08:38:09.661Z,23.33
2023-03-21T08:40:37.856Z,16.20
2023-03-21T08:43:06.288Z,16.33
2023-03-21T08:45:34.325Z,20.48
2023-03-21T08:48:02.725Z,17.05
2023-03-21T08:50:32.098Z,18.20
2023-03-21T08:53:00.741Z,17.77
2023-03-21T08:55:28.667Z,16.42
2023-03-21T08:57:57.427Z,15.82
2023-03-21T09:00:26.085Z,19.52
2023-03-21T09:02:54.805Z,16.00
2023-03-21T09:05:23.127Z,16.20
2023-03-21T09:07:53.070Z,17.83
2023-03-21T09:10:23.321Z,18.95
2023-03-21T09:12:53.316Z,18.08
2023-03-21T09:15:26.816Z,15.70
2023-03-21T09:17:58.645Z,17.23
2023-03-21T09:20:31.565Z,13.32
2023-03-21T09:23:00.001Z,15.15
2023-03-21T09:25:31.841Z,17.58
2023-03-21T09:28:01.226Z,14.10
2023-03-21T09:30:31.707Z,11.13
2023-03-21T09:33:01.564Z,10.90
2023-03-21T09:35:30.131Z,12.13
2023-03-21T09:37:59.646Z,11.18
2023-03-21T09:40:46.148Z,14.50
2023-03-21T09:43:20.938Z,12.60
2023-03-21T09:46:00.189Z,14.48
2023-03-21T09:48:47.004Z,14.88
2023-03-21T09:51:22.613Z,15.07
2023-03-21T09:53:52.661Z,14.00
2023-03-21T09:56:21.490Z,16.80
2023-03-21T09:58:54.950Z,18.15
2023-03-21T10:01:33.379Z,16.67
2023-03-21T10:04:07.645Z,17.63
2023-03-21T10:06:39.733Z,14.80
2023-03-21T10:09:15.347Z,17.67
2023-03-21T10:11:48.874Z,14.95
2023-03-21T10:14:21.059Z,16.77
2023-03-21T10:17:05.094Z,15.30
2023-03-21T10:19:33.340Z,14.77
2023-03-21T10:22:03.109Z,9.45
2023-03-21T10:24:34.661Z,13.52
2023-03-21T10:27:04.034Z,9.48
2023-03-21T10:29:43.519Z,11.57
2023-03-21T10:32:14.493Z,13.60
2023-03-21T10:34:44.574Z,13.48
2023-03-21T10:37:14.498Z,13.68
2023-03-21T10:39:47.020Z,10.73
2023-03-21T10:42:26.407Z,15.18
2023-03-21T10:44:57.875Z,14.18
2023-03-21T10:47:32.133Z,10.50
2023-03-21T10:50:14.035Z,10.98
2023-03-21T10:53:00.629Z,9.85
2023-03-21T10:55:34.331Z,11.93
2023-03-21T11:00:43.678Z,12.70
2023-03-21T11:03:37.024Z,11.02
2023-03-21T11:09:15.209Z,10.20
2023-03-21T11:12:13.796Z,14.25
2023-03-21T11:14:47.522Z,12.98
2023-03-21T11:17:18.447Z,9.90
2023-03-21T11:19:50.715Z,11.43
2023-03-21T11:22:23.595Z,11.20
2023-03-21T11:24:55.075Z,11.52
2023-03-21T11:27:25.497Z,13.88
2023-03-21T11:29:53.232Z,11.38
2023-03-21T11:32:34.498Z,9.07
2023-03-21T11:35:02.714Z,11.73
2023-03-21T11:37:51.447Z,12.75
2023-03-21T11:40:28.121Z,11.27
2023-03-21T11:43:00.850Z,11.38
2023-03-21T11:45:34.484Z,24.00
2023-03-21T11:48:09.028Z,18.60
2023-03-21T11:50:40.643Z,14.10
2023-03-21T11:53:36.972Z,13.07
2023-03-21T11:56:11.453Z,12.25
2023-03-21T11:58:59.211Z,12.77
2023-03-21T12:01:27.706Z,11.32
2023-03-21T12:04:41.722Z,12.55
2023-03-21T12:07:34.621Z,14.48
2023-03-21T12:10:35.082Z,11.80
2023-03-21T12:13:05.850Z,12.23
2023-03-21T12:15:40.717Z,10.40
2023-03-21T12:18:14.639Z,10.20
2023-03-21T12:21:26.015Z,16.30
2023-03-21T12:24:03.124Z,10.38
2023-03-21T12:26:50.495Z,12.52
2023-03-21T12:29:41.140Z,10.85
2023-03-21T12:32:44.140Z,25.02
2023-03-21T12:35:39.418Z,11.10
2023-03-21T12:38:17.325Z,9.52
2023-03-21T12:41:03.843Z,11.05
2023-03-21T12:43:43.160Z,11.43
2023-03-21T12:46:42.383Z,11.70
2023-03-21T12:49:17.997Z,12.32
2023-03-21T12:51:49.191Z,10.95
2023-03-21T12:54:31.975Z,11.00
2023-03-21T12:57:06.168Z,15.40
2023-03-21T12:59:38.882Z,13.27
2023-03-21T13:02:27.624Z,14.07
2023-03-21T13:05:17.673Z,10.90
2023-03-21T13:07:55.322Z,10.38
2023-03-21T13:10:24.792Z,11.38
2023-03-21T13:13:10.188Z,10.95
2023-03-21T13:15:48.658Z,12.55
2023-03-21T13:18:17.031Z,10.07
2023-03-21T13:21:01.180Z,12.05
2023-03-21T13:23:37.813Z,12.25
2023-03-21T13:26:11.720Z,14.30
2023-03-21T13:28:41.420Z,10.40
2023-03-21T13:31:16.329Z,10.48
2023-03-21T13:33:48.470Z,11.10
2023-03-21T13:36:29.171Z,8.43
2023-03-21T13:39:06.597Z,9.68
2023-03-21T13:41:39.326Z,14.07
2023-03-21T13:44:19.595Z,7.32
2023-03-21T13:47:20.885Z,6.88
2023-03-21T13:50:24.804Z,6.22
2023-03-21T13:53:11.526Z,8.60
2023-03-21T13:55:46.063Z,6.20
2023-03-21T13:58:34.640Z,6.82
2023-03-21T14:01:28.077Z,8.88
2023-03-21T14:04:01.384Z,7.43
2023-03-21T14:06:36.325Z,8.27
2023-03-21T14:09:05.444Z,6.80
2023-03-21T14:11:34.866Z,7.25
2023-03-21T14:14:11.026Z,7.55
2023-03-21T14:16:39.393Z,5.22
2023-03-21T14:19:07.983Z,6.40
2023-03-21T14:21:36.745Z,6.47
2023-03-21T14:24:23.121Z,8.38
2023-03-21T14:26:54.095Z,14.68
2023-03-21T14:29:34.089Z,11.95
2023-03-21T14:32:04.187Z,13.45
2023-03-21T14:34:35.626Z,9.48
2023-03-21T14:37:08.105Z,13.10
2023-03-21T14:39:36.399Z,8.97
2023-03-21T14:42:12.576Z,8.88
2023-03-21T14:44:58.349Z,8.38
2023-03-21T14:47:29.551Z,9.40
2023-03-21T14:49:58.412Z,20.38
2023-03-21T14:52:33.251Z,9.27
2023-03-21T14:55:02.406Z,8.80
2023-03-21T14:57:32.337Z,10.38
2023-03-21T15:00:02.637Z,8.55
2023-03-21T15:02:37.287Z,10.13
2023-03-21T15:05:31.877Z,9.43
2023-03-21T15:08:19.051Z,7.57
2023-03-21T15:11:08.279Z,7.38
2023-03-21T15:13:45.804Z,8.73
2023-03-21T15:16:15.580Z,7.75
2023-03-21T15:18:45.103Z,9.20
2023-03-21T15:21:17.693Z,10.73
2023-03-21T15:23:53.465Z,9.85
2023-03-21T15:26:25.608Z,10.18
2023-03-21T15:28:59.376Z,9.95
2023-03-21T15:31:36.071Z,11.63
2023-03-21T15:34:04.998Z,11.20
2023-03-21T15:36:44.338Z,14.80
2023-03-21T15:39:18.697Z,11.40
2023-03-21T15:42:08.071Z,9.95
2023-03-21T15:44:36.847Z,10.95
2023-03-21T15:47:05.542Z,11.95
2023-03-21T15:49:35.152Z,11.30
2023-03-21T15:52:14.858Z,9.98
2023-03-21T15:54:50.421Z,9.57
2023-03-21T15:57:29.959Z,9.38
2023-03-21T16:00:13.604Z,12.10
2023-03-21T16:02:42.714Z,11.70
2023-03-21T16:05:33.318Z,7.93
2023-03-21T16:08:32.235Z,10.30
2023-03-21T16:11:12.561Z,9.30
2023-03-21T16:13:41.102Z,7.90
2023-03-21T16:16:27.449Z,9.85
2023-03-21T16:18:57.120Z,8.90
2023-03-21T16:21:28.718Z,12.10
2023-03-21T16:23:58.415Z,9.38
2023-03-21T16:26:37.115Z,14.57
2023-03-21T16:29:06.239Z,20.45
2023-03-21T16:31:37.408Z,28.30
2023-03-21T16:34:05.557Z,29.55
2023-03-21T16:36:39.051Z,31.00
2023-03-21T16:39:21.895Z,28.67
2023-03-21T16:41:52.067Z,14.10
2023-03-21T16:44:20.797Z,16.42
2023-03-21T16:46:50.336Z,14.60
2023-03-21T16:49:23.918Z,10.30
2023-03-21T16:51:54.091Z,11.90
2023-03-21T16:54:23.115Z,14.70
2023-03-21T16:56:55.855Z,13.95
2023-03-21T16:59:24.260Z,12.13
2023-03-21T17:01:52.582Z,11.50
2023-03-21T17:04:20.583Z,11.73
2023-03-21T17:06:51.367Z,16.73
2023-03-21T17:09:22.165Z,11.80
2023-03-21T17:11:50.624Z,16.58
2023-03-21T17:14:19.185Z,14.10
2023-03-21T17:16:47.724Z,17.02
2023-03-21T17:19:24.168Z,12.70
2023-03-21T17:21:52.713Z,16.50
2023-03-21T17:24:20.568Z,12.15
2023-03-21T17:26:48.664Z,20.98
2023-03-21T17:29:16.802Z,16.52
2023-03-21T17:31:47.616Z,14.57
2023-03-21T17:34:16.122Z,15.20
2023-03-21T17:36:46.689Z,16.67
2023-03-21T17:39:21.451Z,14.45
2023-03-21T17:41:51.091Z,16.58
2023-03-21T17:44:20.479Z,17.67
2023-03-21T17:46:52.386Z,21.17
2023-03-21T17:49:21.462Z,18.42
2023-03-21T17:51:50.792Z,16.98
2023-03-21T17:54:19.028Z,15.82
2023-03-21T17:56:47.478Z,16.60
2023-03-21T17:59:15.669Z,19.90
2023-03-21T18:01:43.523Z,21.27
2023-03-21T18:04:11.290Z,16.92
2023-03-21T18:06:39.750Z,25.23
2023-03-21T18:09:11.926Z,21.95
2023-03-21T18:11:41.538Z,20.63
2023-03-21T18:14:17.537Z,26.63
2023-03-21T18:16:48.279Z,39.63
2023-03-21T18:19:16.879Z,28.45
2023-03-21T18:21:46.028Z,29.75
2023-03-21T18:24:15.073Z,31.70
2023-03-21T18:26:44.504Z,37.60
2023-03-21T18:32:08.255Z,45.47
2023-03-21T18:34:39.090Z,43.60
2023-03-21T18:37:09.064Z,43.75
2023-03-21T18:39:38.252Z,54.95
2023-03-21T18:42:07.529Z,51.45
2023-03-21T18:44:45.510Z,73.97
2023-03-21T18:47:14.890Z,54.88
2023-03-21T18:50:13.126Z,48.78
2023-03-21T18:52:32.726Z,50.40
2023-03-21T18:55:00.858Z,51.58
2023-03-21T18:57:37.018Z,50.03
2023-03-21T19:00:14.196Z,45.15
2023-03-21T19:02:47.727Z,59.10
2023-03-21T19:07:47.174Z,51.72
2023-03-21T19:10:18.939Z,45.53
2023-03-21T19:15:22.191Z,47.90
2023-03-21T19:20:45.324Z,49.72
2023-03-21T19:23:13.952Z,49.55
2023-03-21T19:25:43.297Z,44.38
2023-03-21T19:28:11.923Z,34.60
2023-03-21T19:30:40.182Z,41.75
2023-03-21T19:33:09.437Z,46.65
2023-03-21T19:35:40.926Z,42.85
2023-03-21T19:38:12.330Z,46.60
2023-03-21T19:40:42.008Z,52.10
2023-03-21T19:43:31.121Z,45.25
2023-03-21T19:46:01.153Z,53.42
2023-03-21T19:48:29.954Z,51.25
2023-03-21T19:51:26.267Z,63.08
2023-03-21T19:53:46.609Z,48.78
2023-03-21T19:56:22.433Z,49.28
2023-03-21T19:58:52.586Z,67.32
2023-03-21T20:01:21.429Z,72.38
2023-03-21T20:03:50.131Z,51.88
2023-03-21T20:06:18.785Z,55.67
2023-03-21T20:09:27.330Z,50.13
2023-03-21T20:11:36.216Z,54.95
2023-03-21T20:14:05.533Z,55.17
2023-03-21T20:16:35.672Z,55.50
2023-03-21T20:19:06.482Z,54.53
2023-03-21T20:21:44.415Z,55.50
2023-03-21T20:24:17.137Z,55.58
2023-03-21T20:26:46.237Z,56.28
2023-03-21T20:32:03.472Z,73.18
2023-03-21T20:34:33.795Z,69.03
2023-03-21T20:37:04.056Z,64.22
2023-03-21T20:39:34.278Z,77.13
2023-03-21T20:42:02.562Z,84.10
2023-03-21T20:47:19.602Z,106.78
2023-03-21T20:49:49.506Z,87.22
2023-03-21T20:55:10.027Z,80.57
2023-03-21T20:57:39.124Z,76.43
2023-03-21T21:00:18.785Z,66.05
2023-03-21T21:02:50.793Z,78.18
2023-03-21T21:05:32.892Z,76.75
2023-03-21T21:08:03.861Z,77.68
2023-03-21T21:10:33.674Z,78.93
2023-03-21T21:13:02.022Z,76.82
2023-03-21T21:15:30.227Z,75.05
2023-03-21T21:18:08.054Z,76.35
2023-03-21T21:20:38.776Z,79.07
2023-03-21T21:23:07.030Z,75.00
2023-03-21T21:25:35.565Z,84.43
2023-03-21T21:28:09.275Z,79.47
2023-03-21T21:30:41.900Z,73.40
2023-03-21T21:33:10.236Z,75.57
2023-03-21T21:35:38.890Z,88.30
2023-03-21T21:38:08.642Z,105.80
2023-03-21T21:40:38.532Z,163.43
2023-03-21T21:43:06.883Z,135.18
2023-03-21T21:45:37.675Z,118.18
2023-03-21T21:48:07.109Z,95.72
2023-03-21T21:50:36.932Z,91.32
2023-03-21T21:53:06.530Z,94.95
2023-03-21T21:55:34.984Z,78.40
2023-03-21T21:58:04.621Z,93.82
2023-03-21T22:00:33.264Z,87.18
2023-03-21T22:03:02.365Z,89.45
2023-03-21T22:05:31.071Z,87.28
2023-03-21T22:07:58.783Z,82.30
2023-03-21T22:10:27.915Z,88.60
2023-03-21T22:12:55.988Z,95.38
2023-03-21T22:15:24.653Z,87.70
2023-03-21T22:17:52.937Z,90.53
2023-03-21T22:20:22.216Z,91.43
2023-03-21T22:22:50.400Z,101.85
2023-03-21T22:25:18.967Z,107.38
2023-03-21T22:27:47.698Z,89.72
2023-03-21T22:30:18.166Z,86.07
2023-03-21T22:32:56.428Z,105.03
2023-03-21T22:35:27.818Z,99.63
2023-03-21T22:37:55.707Z,95.60
2023-03-21T22:40:24.752Z,98.50
2023-03-21T22:42:52.600Z,107.72
2023-03-21T22:45:21.240Z,106.80
2023-03-21T22:47:49.281Z,95.25
2023-03-21T22:50:18.130Z,97.95
2023-03-21T22:52:46.497Z,108.22
2023-03-21T22:55:14.669Z,108.40
2023-03-21T22:57:42.365Z,103.25
2023-03-21T23:00:13.866Z,99.55
2023-03-21T23:02:42.824Z,99.20
2023-03-21T23:05:11.204Z,93.35
2023-03-21T23:07:40.309Z,115.93
2023-03-21T23:10:09.122Z,99.38
2023-03-21T23:12:37.848Z,97.15
2023-03-21T23:15:07.902Z,86.47
2023-03-21T23:17:35.973Z,106.80
2023-03-21T23:20:08.804Z,101.30
2023-03-21T23:22:37.201Z,99.47
2023-03-21T23:25:06.828Z,88.75
2023-03-21T23:27:35.637Z,92.47
2023-03-21T23:30:07.302Z,91.60
2023-03-21T23:32:35.796Z,107.30
2023-03-21T23:35:04.485Z,97.03
2023-03-21T23:37:32.292Z,93.45
2023-03-21T23:40:00.582Z,87.88
2023-03-21T23:42:29.439Z,90.35
2023-03-21T23:44:57.467Z,162.32
2023-03-21T23:47:25.698Z,232.10
2023-03-21T23:49:53.613Z,144.85
2023-03-21T23:52:21.849Z,101.40
2023-03-21T23:54:50.074Z,224.27
2023-03-21T23:57:18.350Z,188.43
2023-03-21T23:59:47.212Z,350.05
